createdAt,value
2023-01-23T00:02:05.950Z,1.47
2023-01-23T00:04:32.358Z,1.97
2023-01-23T00:06:58.747Z,1.70
2023-01-23T00:09:25.255Z,1.90
2023-01-23T00:11:51.593Z,1.30
2023-01-23T00:14:18.447Z,1.50
2023-01-23T00:16:44.828Z,1.63
2023-01-23T00:19:11.486Z,1.20
2023-01-23T00:21:37.856Z,1.43
2023-01-23T00:24:04.434Z,1.43
2023-01-23T00:26:32.932Z,1.43
2023-01-23T00:28:59.354Z,1.73
2023-01-23T00:31:27.180Z,1.80
2023-01-23T00:33:54.644Z,1.80
2023-01-23T00:36:21.059Z,1.70
2023-01-23T00:38:47.445Z,1.40
2023-01-23T00:41:13.833Z,1.50
2023-01-23T00:43:40.267Z,1.83
2023-01-23T00:46:06.753Z,1.53
2023-01-23T00:48:33.353Z,1.73
2023-01-23T00:50:59.756Z,1.80
2023-01-23T00:53:26.309Z,1.93
2023-01-23T00:55:53.591Z,1.30
2023-01-23T00:58:19.978Z,1.47
2023-01-23T01:00:46.309Z,1.40
2023-01-23T01:03:12.888Z,1.60
2023-01-23T01:05:39.331Z,1.73
2023-01-23T01:08:05.995Z,2.03
2023-01-23T01:10:34.074Z,1.70
2023-01-23T01:13:01.869Z,1.43
2023-01-23T01:15:28.791Z,1.60
2023-01-23T01:17:55.259Z,1.67
2023-01-23T01:20:23.661Z,1.73
2023-01-23T01:22:50.416Z,1.80
2023-01-23T01:25:16.793Z,1.60
2023-01-23T01:27:43.172Z,1.70
2023-01-23T01:30:09.896Z,1.73
2023-01-23T01:32:37.098Z,1.73
2023-01-23T01:35:04.429Z,1.30
2023-01-23T01:37:32.781Z,1.70
2023-01-23T01:39:59.206Z,1.80
2023-01-23T01:42:28.454Z,1.70
2023-01-23T01:44:57.636Z,1.77
2023-01-23T01:47:24.533Z,1.83
2023-01-23T01:49:53.026Z,2.33
2023-01-23T01:52:20.955Z,1.93
2023-01-23T01:55:07.704Z,1.40
2023-01-23T01:57:38.687Z,1.10
2023-01-23T02:00:18.428Z,1.70
2023-01-23T02:05:22.525Z,1.80
2023-01-23T02:07:57.898Z,1.57
2023-01-23T02:10:24.557Z,1.33
2023-01-23T02:12:51.847Z,1.60
2023-01-23T02:15:19.778Z,1.83
2023-01-23T02:17:47.277Z,1.90
2023-01-23T02:20:22.336Z,2.20
2023-01-23T02:22:50.338Z,2.40
2023-01-23T02:25:21.210Z,2.87
2023-01-23T02:27:47.667Z,2.40
2023-01-23T02:30:16.108Z,1.97
2023-01-23T02:32:42.571Z,2.30
2023-01-23T02:35:11.603Z,2.40
2023-01-23T02:37:40.492Z,2.37
2023-01-23T02:40:07.435Z,2.23
2023-01-23T02:42:34.461Z,2.73
2023-01-23T02:45:01.123Z,2.70
2023-01-23T02:47:27.640Z,2.37
2023-01-23T02:49:54.054Z,2.57
2023-01-23T02:52:20.489Z,2.60
2023-01-23T02:54:47.654Z,2.60
2023-01-23T02:57:14.512Z,2.53
2023-01-23T02:59:59.644Z,2.63
2023-01-23T03:02:27.512Z,3.03
2023-01-23T03:04:54.009Z,3.50
2023-01-23T03:07:20.462Z,2.73
2023-01-23T03:09:48.736Z,2.50
2023-01-23T03:12:15.584Z,3.20
2023-01-23T03:14:42.009Z,2.87
2023-01-23T03:17:11.250Z,3.00
2023-01-23T03:19:39.008Z,2.67
2023-01-23T03:22:05.532Z,3.00
2023-01-23T03:24:33.689Z,2.40
2023-01-23T03:27:00.306Z,2.93
2023-01-23T03:29:45.460Z,2.97
2023-01-23T03:32:12.663Z,2.90
2023-01-23T03:34:39.371Z,2.77
2023-01-23T03:37:07.993Z,2.90
2023-01-23T03:39:53.144Z,3.43
2023-01-23T03:42:19.609Z,3.40
2023-01-23T03:44:46.029Z,3.13
2023-01-23T03:47:12.398Z,3.37
2023-01-23T03:49:38.835Z,3.37
2023-01-23T03:52:05.297Z,2.80
2023-01-23T03:54:31.767Z,3.13
2023-01-23T03:56:58.456Z,3.67
2023-01-23T03:59:24.863Z,3.77
2023-01-23T04:01:51.299Z,3.50
2023-01-23T04:04:17.846Z,3.63
2023-01-23T04:06:44.255Z,3.13
2023-01-23T04:09:10.677Z,2.93
2023-01-23T04:11:37.402Z,3.97
2023-01-23T04:14:03.797Z,3.07
2023-01-23T04:16:30.201Z,3.17
2023-01-23T04:18:56.656Z,10.80
2023-01-23T04:21:23.088Z,17.13
2023-01-23T04:23:49.925Z,4.70
2023-01-23T04:26:16.358Z,4.13
2023-01-23T04:28:42.704Z,3.60
2023-01-23T04:31:09.647Z,3.13
2023-01-23T04:33:36.231Z,3.33
2023-01-23T04:36:04.353Z,3.47
2023-01-23T04:38:31.381Z,3.00
2023-01-23T04:40:57.807Z,3.10
2023-01-23T04:43:24.301Z,11.47
2023-01-23T04:45:51.289Z,14.17
2023-01-23T04:48:17.737Z,12.80
2023-01-23T04:50:44.399Z,4.33
2023-01-23T04:53:11.352Z,3.13
2023-01-23T04:55:37.778Z,3.10
2023-01-23T04:58:04.189Z,3.27
2023-01-23T05:00:30.598Z,3.13
2023-01-23T05:02:57.500Z,3.20
2023-01-23T05:05:24.376Z,3.40
2023-01-23T05:07:51.508Z,3.20
2023-01-23T05:10:18.345Z,3.50
2023-01-23T05:12:44.825Z,3.33
2023-01-23T05:15:11.292Z,4.00
2023-01-23T05:17:38.076Z,3.60
2023-01-23T05:20:05.002Z,3.50
2023-01-23T05:22:32.368Z,3.27
2023-01-23T05:24:58.790Z,3.50
2023-01-23T05:27:25.167Z,3.60
2023-01-23T05:29:51.495Z,3.67
2023-01-23T05:32:17.859Z,3.20
2023-01-23T05:34:45.100Z,3.13
2023-01-23T05:37:11.615Z,3.97
2023-01-23T05:39:37.987Z,3.80
2023-01-23T05:42:05.123Z,4.20
2023-01-23T05:44:31.743Z,4.07
2023-01-23T05:46:58.118Z,4.23
2023-01-23T05:49:24.502Z,3.93
2023-01-23T05:51:50.930Z,4.60
2023-01-23T05:54:17.375Z,3.87
2023-01-23T05:56:43.804Z,4.40
2023-01-23T05:59:10.228Z,4.00
2023-01-23T06:01:36.678Z,4.40
2023-01-23T06:04:03.042Z,4.23
2023-01-23T06:06:29.384Z,4.27
2023-01-23T06:08:55.830Z,4.33
2023-01-23T06:11:22.223Z,4.30
2023-01-23T06:13:48.691Z,4.50
2023-01-23T06:16:15.187Z,4.47
2023-01-23T06:18:41.605Z,4.10
2023-01-23T06:21:08.018Z,4.57
2023-01-23T06:23:34.417Z,5.07
2023-01-23T06:26:01.762Z,4.53
2023-01-23T06:28:28.183Z,4.80
2023-01-23T06:30:54.788Z,5.10
2023-01-23T06:33:21.299Z,4.37
2023-01-23T06:35:47.731Z,4.70
2023-01-23T06:38:14.112Z,4.80
2023-01-23T06:40:40.468Z,4.70
2023-01-23T06:43:06.904Z,4.97
2023-01-23T06:45:33.494Z,4.97
2023-01-23T06:47:59.890Z,4.83
2023-01-23T06:50:26.384Z,5.00
2023-01-23T06:52:52.759Z,5.13
2023-01-23T06:55:20.343Z,5.10
2023-01-23T06:57:46.821Z,6.20
2023-01-23T07:00:13.567Z,5.53
2023-01-23T07:02:40.072Z,5.63
2023-01-23T07:05:06.992Z,5.23
2023-01-23T07:07:33.361Z,5.20
2023-01-23T07:09:59.896Z,5.57
2023-01-23T07:12:26.349Z,6.47
2023-01-23T07:14:52.692Z,5.60
2023-01-23T07:17:19.076Z,5.67
2023-01-23T07:19:45.474Z,5.47
2023-01-23T07:22:11.851Z,5.47
2023-01-23T07:24:38.254Z,5.43
2023-01-23T07:27:04.630Z,5.50
2023-01-23T07:29:31.035Z,5.47
2023-01-23T07:31:59.653Z,6.10
2023-01-23T07:34:26.304Z,5.90
2023-01-23T07:36:52.703Z,5.60
2023-01-23T07:39:19.370Z,5.40
2023-01-23T07:41:46.530Z,6.43
2023-01-23T07:44:16.800Z,5.50
2023-01-23T07:46:43.873Z,6.30
2023-01-23T07:49:10.341Z,6.93
2023-01-23T07:51:36.692Z,7.33
2023-01-23T07:54:03.392Z,5.80
2023-01-23T07:56:29.896Z,6.87
2023-01-23T07:58:57.533Z,5.87
2023-01-23T08:01:24.101Z,6.13
2023-01-23T08:03:50.556Z,6.73
2023-01-23T08:06:16.926Z,5.90
2023-01-23T08:08:47.466Z,6.50
2023-01-23T08:11:13.983Z,5.70
2023-01-23T08:13:40.814Z,5.97
2023-01-23T08:16:07.678Z,6.23
2023-01-23T08:18:34.562Z,6.43
2023-01-23T08:21:01.846Z,5.67
2023-01-23T08:23:29.979Z,6.00
2023-01-23T08:25:57.435Z,6.00
2023-01-23T08:28:24.536Z,6.30
2023-01-23T08:30:51.361Z,5.70
2023-01-23T08:33:18.113Z,5.63
2023-01-23T08:35:51.609Z,6.23
2023-01-23T08:38:20.930Z,5.93
2023-01-23T08:40:48.238Z,6.30
2023-01-23T08:43:15.206Z,5.87
2023-01-23T08:45:41.705Z,5.93
2023-01-23T08:48:08.969Z,5.97
2023-01-23T08:50:35.377Z,5.83
2023-01-23T08:53:01.830Z,6.80
2023-01-23T08:55:29.107Z,7.17
2023-01-23T08:57:55.608Z,6.67
2023-01-23T09:00:22.585Z,6.80
2023-01-23T09:02:49.143Z,6.30
2023-01-23T09:05:18.677Z,6.27
2023-01-23T09:07:45.036Z,5.83
2023-01-23T09:10:12.825Z,6.33
2023-01-23T09:12:41.852Z,5.97
2023-01-23T09:15:14.648Z,6.60
2023-01-23T09:17:41.281Z,7.30
2023-01-23T09:20:08.677Z,6.50
2023-01-23T09:22:37.418Z,6.47
2023-01-23T09:25:04.336Z,5.90
2023-01-23T09:27:30.691Z,6.70
2023-01-23T09:29:57.169Z,6.43
2023-01-23T09:32:23.567Z,6.63
2023-01-23T09:34:49.998Z,5.93
2023-01-23T09:37:16.873Z,6.20
2023-01-23T09:39:43.609Z,6.87
2023-01-23T09:42:15.958Z,6.83
2023-01-23T09:44:44.525Z,6.67
2023-01-23T09:47:13.326Z,6.47
2023-01-23T09:49:49.374Z,6.30
2023-01-23T09:52:24.109Z,6.67
2023-01-23T09:54:54.435Z,6.30
2023-01-23T09:57:20.954Z,6.27
2023-01-23T10:00:00.129Z,6.60
2023-01-23T10:02:27.532Z,6.67
2023-01-23T10:04:54.466Z,6.87
2023-01-23T10:07:27.350Z,5.97
2023-01-23T10:10:07.136Z,6.83
2023-01-23T10:12:39.438Z,6.40
2023-01-23T10:15:08.943Z,6.77
2023-01-23T10:17:44.582Z,6.90
2023-01-23T10:20:10.993Z,7.87
2023-01-23T10:22:39.141Z,7.67
2023-01-23T10:25:24.320Z,8.17
2023-01-23T10:27:51.580Z,8.23
2023-01-23T10:30:22.893Z,8.20
2023-01-23T10:32:52.701Z,6.73
2023-01-23T10:35:22.759Z,7.03
2023-01-23T10:37:52.691Z,6.87
2023-01-23T10:40:39.399Z,7.07
2023-01-23T10:43:16.244Z,8.03
2023-01-23T10:45:43.057Z,8.67
2023-01-23T10:48:29.024Z,7.43
2023-01-23T10:50:55.650Z,7.23
2023-01-23T10:53:22.416Z,7.10
2023-01-23T10:55:50.976Z,7.40
2023-01-23T10:58:28.847Z,7.77
2023-01-23T11:00:55.349Z,7.33
2023-01-23T11:03:21.685Z,7.47
2023-01-23T11:05:53.511Z,7.00
2023-01-23T11:08:26.242Z,7.33
2023-01-23T11:10:53.202Z,7.73
2023-01-23T11:13:26.608Z,7.50
2023-01-23T11:15:53.256Z,7.30
2023-01-23T11:18:34.205Z,8.63
2023-01-23T11:21:01.310Z,7.13
2023-01-23T11:23:29.443Z,6.67
2023-01-23T11:25:55.979Z,8.37
2023-01-23T11:28:30.776Z,8.53
2023-01-23T11:31:14.654Z,8.63
2023-01-23T11:33:57.294Z,7.80
2023-01-23T11:36:49.762Z,8.30
2023-01-23T11:39:25.439Z,7.37
2023-01-23T11:41:52.261Z,8.03
2023-01-23T11:44:22.652Z,8.57
2023-01-23T11:47:08.363Z,8.10
2023-01-23T11:49:53.502Z,7.30
2023-01-23T11:52:42.267Z,8.60
2023-01-23T11:55:21.096Z,7.80
2023-01-23T11:57:47.764Z,8.13
2023-01-23T12:00:23.718Z,9.10
2023-01-23T12:02:59.431Z,8.07
2023-01-23T12:05:29.818Z,9.73
2023-01-23T12:08:17.840Z,25.07
2023-01-23T12:10:49.879Z,10.90
2023-01-23T12:13:34.733Z,9.93
2023-01-23T12:16:04.169Z,8.63
2023-01-23T12:18:33.684Z,9.27
2023-01-23T12:21:19.530Z,8.07
2023-01-23T12:23:57.514Z,7.90
2023-01-23T12:26:25.003Z,8.40
2023-01-23T12:29:00.678Z,7.07
2023-01-23T12:31:27.136Z,8.23
2023-01-23T12:34:12.421Z,8.07
2023-01-23T12:36:59.551Z,7.80
2023-01-23T12:39:35.924Z,8.10
2023-01-23T12:42:05.176Z,14.40
2023-01-23T12:44:37.110Z,23.37
2023-01-23T12:47:10.362Z,10.00
2023-01-23T12:49:43.465Z,7.83
2023-01-23T12:52:12.946Z,7.93
2023-01-23T12:54:44.512Z,8.07
2023-01-23T12:57:11.152Z,8.33
2023-01-23T12:59:59.646Z,7.47
2023-01-23T13:02:34.369Z,8.20
2023-01-23T13:05:20.027Z,7.17
2023-01-23T13:07:55.105Z,8.27
2023-01-23T13:10:49.105Z,8.43
2023-01-23T13:13:16.713Z,8.30
2023-01-23T13:15:43.544Z,8.57
2023-01-23T13:18:23.668Z,7.23
2023-01-23T13:21:16.001Z,8.23
2023-01-23T13:23:42.542Z,7.87
2023-01-23T13:26:23.183Z,8.50
2023-01-23T13:28:56.273Z,8.43
2023-01-23T13:31:41.621Z,8.87
2023-01-23T13:34:17.787Z,8.77
2023-01-23T13:36:47.556Z,8.67
2023-01-23T13:39:17.118Z,8.77
2023-01-23T13:42:03.829Z,8.33
2023-01-23T13:44:40.910Z,8.50
2023-01-23T14:24:27.290Z,8.87
2023-01-23T14:27:02.497Z,7.83
2023-01-23T14:29:31.052Z,7.63
2023-01-23T14:31:57.607Z,8.10
2023-01-23T14:34:25.469Z,8.57
2023-01-23T14:36:56.597Z,8.07
2023-01-23T14:39:25.932Z,7.83
2023-01-23T14:41:54.069Z,8.60
2023-01-23T14:44:22.261Z,9.30
2023-01-23T14:46:53.042Z,8.23
2023-01-23T14:49:25.378Z,11.30
2023-01-23T14:51:58.928Z,10.80
2023-01-23T14:54:29.636Z,9.60
2023-01-23T14:56:59.642Z,9.30
2023-01-23T14:59:30.863Z,8.43
2023-01-23T15:01:58.633Z,8.33
2023-01-23T15:04:27.799Z,8.47
2023-01-23T15:06:56.454Z,9.00
2023-01-23T15:09:29.354Z,8.80
2023-01-23T15:11:57.116Z,8.53
2023-01-23T15:14:26.410Z,8.53
2023-01-23T15:16:59.654Z,8.90
2023-01-23T15:19:26.469Z,8.70
2023-01-23T15:22:04.875Z,8.80
2023-01-23T15:24:31.438Z,8.53
2023-01-23T15:26:57.809Z,8.90
2023-01-23T15:29:24.187Z,8.60
2023-01-23T15:31:57.411Z,9.23
2023-01-23T15:34:24.782Z,8.80
2023-01-23T15:36:51.165Z,8.70
2023-01-23T15:39:25.686Z,9.03
2023-01-23T15:41:57.172Z,9.57
2023-01-23T15:44:27.159Z,8.83
2023-01-23T15:46:54.628Z,9.20
2023-01-23T15:49:25.935Z,9.80
2023-01-23T15:51:55.046Z,9.03
2023-01-23T15:54:41.685Z,8.60
2023-01-23T15:57:10.961Z,10.23
2023-01-23T15:59:37.546Z,9.07
2023-01-23T16:02:04.631Z,10.17
2023-01-23T16:04:31.107Z,8.67
2023-01-23T16:07:00.230Z,9.17
2023-01-23T16:09:30.749Z,10.47
2023-01-23T16:11:58.947Z,9.53
2023-01-23T16:14:25.808Z,9.70
2023-01-23T16:16:52.234Z,9.17
2023-01-23T16:19:18.655Z,9.73
2023-01-23T16:21:47.735Z,10.07
2023-01-23T16:24:22.617Z,9.27
2023-01-23T16:26:49.837Z,10.10
2023-01-23T16:29:26.757Z,9.77
2023-01-23T16:31:54.120Z,10.30
2023-01-23T16:34:20.909Z,10.30
2023-01-23T16:36:48.439Z,10.10
2023-01-23T16:39:18.811Z,9.93
2023-01-23T16:41:45.784Z,10.37
2023-01-23T16:44:13.743Z,11.43
2023-01-23T16:46:40.142Z,9.93
2023-01-23T16:49:06.582Z,15.43
2023-01-23T16:51:34.163Z,12.27
2023-01-23T16:54:05.956Z,12.10
2023-01-23T16:56:39.291Z,10.33
2023-01-23T16:59:07.601Z,10.13
2023-01-23T17:01:37.496Z,10.00
2023-01-23T17:04:04.831Z,10.33
2023-01-23T17:06:31.842Z,10.80
2023-01-23T17:08:58.432Z,10.27
2023-01-23T17:11:29.053Z,9.80
2023-01-23T17:13:59.573Z,10.33
2023-01-23T17:16:27.838Z,10.17
2023-01-23T17:18:55.623Z,11.50
2023-01-23T17:21:23.816Z,10.50
2023-01-23T17:23:50.527Z,11.40
2023-01-23T17:26:17.586Z,11.17
2023-01-23T17:28:44.622Z,10.20
2023-01-23T17:31:16.041Z,11.27
2023-01-23T17:33:42.788Z,10.70
2023-01-23T17:36:09.318Z,10.37
2023-01-23T17:38:35.788Z,22.60
2023-01-23T17:41:04.674Z,15.70
2023-01-23T17:43:31.177Z,11.37
2023-01-23T17:45:58.199Z,11.27
2023-01-23T17:48:29.267Z,9.80
2023-01-23T17:50:56.020Z,11.43
2023-01-23T17:53:23.951Z,11.53
2023-01-23T17:55:51.583Z,12.53
2023-01-23T17:58:18.942Z,10.80
2023-01-23T18:00:46.613Z,11.30
2023-01-23T18:03:14.164Z,12.03
2023-01-23T18:05:41.287Z,11.47
2023-01-23T18:08:10.080Z,11.23
2023-01-23T18:10:37.439Z,11.67
2023-01-23T18:13:03.995Z,10.90
2023-01-23T18:15:35.275Z,11.03
2023-01-23T18:18:04.754Z,12.00
2023-01-23T18:20:32.433Z,12.57
2023-01-23T18:22:59.507Z,12.33
2023-01-23T18:25:26.421Z,12.87
2023-01-23T18:27:54.431Z,13.30
2023-01-23T18:30:28.700Z,13.00
2023-01-23T18:32:55.420Z,15.10
2023-01-23T18:35:29.112Z,14.40
2023-01-23T18:38:02.749Z,13.13
2023-01-23T18:40:37.951Z,12.17
2023-01-23T18:43:10.482Z,11.63
2023-01-23T18:45:36.979Z,14.83
2023-01-23T18:48:04.679Z,13.03
2023-01-23T18:50:34.124Z,12.97
2023-01-23T18:53:12.219Z,11.53
2023-01-23T18:55:58.794Z,12.30
2023-01-23T18:58:29.273Z,12.57
2023-01-23T19:01:14.828Z,13.03
2023-01-23T19:03:42.958Z,12.73
2023-01-23T19:06:23.400Z,11.40
2023-01-23T19:08:50.700Z,13.20
2023-01-23T19:11:29.349Z,18.37
2023-01-23T19:13:55.819Z,13.70
2023-01-23T19:16:33.019Z,12.93
2023-01-23T19:19:15.225Z,12.00
2023-01-23T19:21:42.536Z,12.53
2023-01-23T19:24:11.173Z,14.07
2023-01-23T19:26:38.679Z,13.27
2023-01-23T19:29:20.630Z,12.83
2023-01-23T19:32:03.037Z,13.80
2023-01-23T19:34:30.851Z,12.93
2023-01-23T19:36:57.262Z,12.97
2023-01-23T19:39:23.773Z,13.43
2023-01-23T19:41:50.196Z,14.23
2023-01-23T19:44:17.448Z,15.00
2023-01-23T19:46:44.382Z,13.80
2023-01-23T19:49:11.119Z,12.93
2023-01-23T19:51:38.109Z,13.70
2023-01-23T19:54:09.542Z,13.90
2023-01-23T19:56:36.664Z,12.23
2023-01-23T19:59:04.092Z,12.97
2023-01-23T20:01:48.594Z,12.77
2023-01-23T20:04:19.944Z,12.90
2023-01-23T20:06:48.823Z,12.33
2023-01-23T20:09:15.457Z,12.47
2023-01-23T20:11:42.738Z,12.40
2023-01-23T20:14:09.206Z,12.50
2023-01-23T20:16:40.156Z,12.77
2023-01-23T20:19:06.979Z,13.47
2023-01-23T20:21:33.731Z,14.33
2023-01-23T20:24:00.149Z,13.23
2023-01-23T20:26:26.579Z,13.10
2023-01-23T20:28:55.939Z,12.60
2023-01-23T20:31:22.790Z,13.67
2023-01-23T20:33:49.506Z,13.40
2023-01-23T20:36:16.055Z,13.80
2023-01-23T20:38:42.885Z,13.87
2023-01-23T20:41:10.715Z,11.90
2023-01-23T20:43:38.209Z,13.13
2023-01-23T20:46:05.451Z,12.33
2023-01-23T20:48:35.355Z,13.13
2023-01-23T20:51:02.222Z,13.70
2023-01-23T20:53:31.684Z,13.77
2023-01-23T20:56:08.997Z,12.37
2023-01-23T20:58:55.926Z,12.43
2023-01-23T21:01:23.748Z,13.37
2023-01-23T21:03:50.601Z,12.87
2023-01-23T21:06:17.851Z,13.60
2023-01-23T21:08:46.210Z,13.03
2023-01-23T21:11:19.675Z,13.43
2023-01-23T21:13:50.458Z,13.53
2023-01-23T21:16:17.264Z,14.10
2023-01-23T21:18:47.681Z,14.80
2023-01-23T21:21:19.590Z,13.50
2023-01-23T21:23:48.961Z,14.40
2023-01-23T21:26:16.482Z,14.03
2023-01-23T21:28:42.817Z,14.47
2023-01-23T21:31:10.329Z,13.77
2023-01-23T21:33:37.077Z,13.87
2023-01-23T21:36:03.595Z,12.73
2023-01-23T21:38:29.974Z,14.67
2023-01-23T21:40:56.398Z,12.87
2023-01-23T21:43:22.788Z,13.87
2023-01-23T21:45:49.201Z,14.10
2023-01-23T21:48:15.540Z,14.67
2023-01-23T21:50:42.123Z,13.77
2023-01-23T21:53:08.535Z,13.93
2023-01-23T21:55:34.909Z,15.90
2023-01-23T21:58:01.343Z,14.20
2023-01-23T22:00:46.453Z,14.07
2023-01-23T22:03:12.829Z,14.43
2023-01-23T22:05:39.257Z,12.60
2023-01-23T22:08:05.959Z,14.63
2023-01-23T22:10:32.399Z,14.67
2023-01-23T22:12:58.817Z,14.23
2023-01-23T22:15:25.252Z,13.17
2023-01-23T22:17:51.917Z,13.47
2023-01-23T22:20:18.526Z,13.43
2023-01-23T22:22:44.930Z,13.33
2023-01-23T22:25:11.381Z,15.53
2023-01-23T22:27:37.834Z,14.30
2023-01-23T22:30:04.949Z,14.60
2023-01-23T22:32:32.469Z,14.80
2023-01-23T22:34:58.873Z,14.07
2023-01-23T22:37:25.204Z,13.90
2023-01-23T22:39:51.614Z,14.17
2023-01-23T22:42:19.195Z,13.77
2023-01-23T22:44:45.657Z,13.80
2023-01-23T22:47:12.550Z,13.43
2023-01-23T22:49:39.012Z,13.40
2023-01-23T22:52:05.704Z,13.27
2023-01-23T22:54:33.237Z,13.57
2023-01-23T22:56:59.651Z,12.67
2023-01-23T22:59:25.984Z,14.97
2023-01-23T23:01:52.327Z,13.37
2023-01-23T23:04:18.693Z,13.87
2023-01-23T23:06:45.129Z,13.73
2023-01-23T23:09:11.682Z,13.87
2023-01-23T23:11:39.009Z,13.73
2023-01-23T23:14:05.612Z,14.13
2023-01-23T23:16:32.377Z,13.73
2023-01-23T23:19:00.696Z,13.77
2023-01-23T23:21:29.785Z,12.67
2023-01-23T23:23:57.916Z,13.97
2023-01-23T23:26:25.177Z,13.37
2023-01-23T23:28:51.604Z,12.10
2023-01-23T23:31:18.427Z,13.20
2023-01-23T23:33:44.965Z,12.67
2023-01-23T23:36:11.518Z,13.13
2023-01-23T23:38:38.021Z,11.90
2023-01-23T23:41:05.779Z,13.07
2023-01-23T23:43:32.654Z,11.77
2023-01-23T23:46:00.401Z,12.03
2023-01-23T23:48:27.148Z,12.77
2023-01-23T23:50:54.269Z,12.13
2023-01-23T23:53:21.561Z,12.73
2023-01-23T23:55:48.136Z,12.50
2023-01-23T23:58:14.640Z,12.57
